This is the latest recevied weather packets stored in our database for station/object N4OGP-WX. If no packets are shown the sender has not sent any weather packets the latest 10 day(s).
| Time | Temp. | Humidity | Pressure | Rain* | Wind** | Luminosity | Snow |
|---|---|---|---|---|---|---|---|
| 1778211958 | 21.67° C | 89% | 1011.8 hPa | 0 mm | - | - | - |
| 1778211868 | 21.67° C | 89% | 1011.8 hPa | 0 mm | - | - | - |
| 1778211778 | 21.67° C | 89% | 1011.9 hPa | 0 mm | - | - | - |
| 1778211688 | 22.22° C | 88% | 1011.8 hPa | 0 mm | - | - | - |
| 1778211628 | 23.89° C | 42% | 1020.4 hPa | 0 mm | - | - | - |
| 1778211568 | 23.89° C | 42% | 1020.4 hPa | 0 mm | - | - | - |
| 1778211508 | 23.89° C | 42% | 1020.4 hPa | 0 mm | - | - | - |
| 1778211418 | 22.22° C | 88% | 1011.6 hPa | 0 mm | - | - | - |
| 1778211328 | 23.89° C | 42% | 1020.4 hPa | 0 mm | - | - | - |
| 1778211238 | 22.22° C | 88% | 1011.5 hPa | 0 mm | - | - | - |
| 1778211178 | 22.22° C | 88% | 1011.6 hPa | 0 mm | - | - | - |
| 1778211118 | 22.22° C | 88% | 1011.5 hPa | 0 mm | - | - | - |
| 1778211028 | 23.89° C | 42% | 1020.4 hPa | 0 mm | - | - | - |
| 1778210968 | 22.22° C | 88% | 1011.5 hPa | 0 mm | - | - | - |
| 1778210908 | 22.22° C | 88% | 1011.5 hPa | 0 mm | - | - | - |
| 1778210818 | 22.22° C | 88% | 1011.6 hPa | 0 mm | - | - | - |
| 1778210758 | 23.89° C | 42% | 1020.4 hPa | 0 mm | - | - | - |
| 1778210698 | 22.22° C | 88% | 1011.8 hPa | 0 mm | - | - | - |
| 1778210608 | 23.89° C | 42% | 1020.4 hPa | 0 mm | - | - | - |
| 1778210548 | 23.89° C | 42% | 1020.4 hPa | 0 mm | - | - | - |
| 1778210488 | 22.78° C | 87% | 1011.9 hPa | 0 mm | - | - | - |
| 1778210398 | 22.78° C | 87% | 1011.9 hPa | 0 mm | - | - | - |
| 1778210338 | 23.89° C | 42% | 1020.4 hPa | 0 mm | - | - | - |
| 1778210278 | 22.78° C | 87% | 1011.9 hPa | 0 mm | - | - | - |
| 1778210218 | 23.89° C | 42% | 1020.4 hPa | 0 mm | - | - | - |
* Rain latest hour (hover to see other rain measurements)
** Current wind speed in m/s (hover to see current wind gust speed)